createdAt,value
2022-11-22T00:00:39.316Z,4.93
2022-11-22T00:03:07.028Z,7.75
2022-11-22T00:05:34.616Z,3.10
2022-11-22T00:08:02.153Z,2.63
2022-11-22T00:10:29.536Z,2.65
2022-11-22T00:12:57.145Z,4.53
2022-11-22T00:15:24.751Z,3.97
2022-11-22T00:17:52.353Z,3.35
2022-11-22T00:20:19.983Z,5.03
2022-11-22T00:22:47.715Z,2.85
2022-11-22T00:25:15.835Z,2.28
2022-11-22T00:27:43.215Z,4.40
2022-11-22T00:30:11.234Z,3.53
2022-11-22T00:32:38.665Z,3.42
2022-11-22T00:35:06.574Z,4.10
2022-11-22T00:37:34.214Z,4.38
2022-11-22T00:40:02.770Z,2.38
2022-11-22T00:42:30.523Z,3.83
2022-11-22T00:44:58.137Z,6.28
2022-11-22T00:47:26.563Z,4.22
2022-11-22T00:49:53.961Z,4.00
2022-11-22T00:52:21.338Z,3.60
2022-11-22T00:54:54.323Z,3.92
2022-11-22T00:57:22.468Z,6.75
2022-11-22T00:59:49.953Z,4.95
2022-11-22T01:02:17.343Z,5.20
2022-11-22T01:04:44.804Z,7.43
2022-11-22T01:07:12.402Z,6.20
2022-11-22T01:09:39.776Z,5.47
2022-11-22T01:12:07.433Z,6.13
2022-11-22T01:14:35.013Z,7.13
2022-11-22T01:17:02.523Z,6.20
2022-11-22T01:19:30.320Z,4.15
2022-11-22T01:21:58.792Z,4.85
2022-11-22T01:24:26.303Z,3.90
2022-11-22T01:26:53.982Z,3.47
2022-11-22T01:29:21.326Z,4.07
2022-11-22T01:31:48.823Z,5.38
2022-11-22T01:34:16.333Z,4.38
2022-11-22T01:36:43.917Z,8.35
2022-11-22T01:39:11.444Z,4.18
2022-11-22T01:41:39.153Z,4.90
2022-11-22T01:44:23.334Z,4.97
2022-11-22T01:46:53.049Z,4.10
2022-11-22T01:49:25.028Z,6.18
2022-11-22T01:51:53.444Z,4.05
2022-11-22T01:54:22.337Z,3.30
2022-11-22T01:56:54.321Z,4.75
2022-11-22T01:59:23.911Z,7.95
2022-11-22T02:01:52.058Z,3.42
2022-11-22T02:04:20.576Z,6.70
2022-11-22T02:06:53.063Z,5.97
2022-11-22T02:09:21.476Z,4.55
2022-11-22T02:11:53.183Z,6.32
2022-11-22T02:14:23.256Z,3.05
2022-11-22T02:16:50.654Z,4.35
2022-11-22T02:19:28.094Z,4.38
2022-11-22T02:21:59.455Z,6.53
2022-11-22T02:24:28.924Z,5.72
2022-11-22T02:26:56.559Z,4.70
2022-11-22T02:29:24.231Z,5.22
2022-11-22T02:31:51.746Z,4.55
2022-11-22T02:34:19.201Z,4.57
2022-11-22T02:36:49.896Z,4.63
2022-11-22T02:39:19.279Z,6.53
2022-11-22T02:41:47.236Z,4.93
2022-11-22T02:44:14.857Z,5.05
2022-11-22T02:46:53.161Z,6.30
2022-11-22T02:49:22.213Z,5.10
2022-11-22T02:51:51.005Z,7.22
2022-11-22T02:54:18.734Z,5.85
2022-11-22T02:56:46.326Z,5.20
2022-11-22T02:59:13.715Z,4.72
2022-11-22T03:01:41.802Z,3.42
2022-11-22T03:04:09.361Z,4.45
2022-11-22T03:06:37.008Z,4.72
2022-11-22T03:09:04.786Z,5.68
2022-11-22T03:11:32.447Z,4.80
2022-11-22T03:14:00.133Z,4.97
2022-11-22T03:16:27.616Z,4.97
2022-11-22T03:18:55.426Z,3.80
2022-11-22T03:21:22.772Z,5.05
2022-11-22T03:23:50.425Z,6.13
2022-11-22T03:26:17.975Z,4.82
2022-11-22T03:28:45.644Z,5.93
2022-11-22T03:31:13.484Z,6.82
2022-11-22T03:33:41.248Z,4.95
2022-11-22T03:36:08.667Z,7.25
2022-11-22T03:38:36.761Z,4.97
2022-11-22T03:41:04.058Z,5.13
2022-11-22T03:43:31.794Z,4.25
2022-11-22T03:45:59.343Z,6.85
2022-11-22T03:48:27.153Z,8.55
2022-11-22T03:50:54.684Z,5.40
2022-11-22T03:53:23.492Z,5.22
2022-11-22T03:55:51.343Z,5.63
2022-11-22T03:58:18.876Z,5.72
2022-11-22T04:00:46.325Z,6.32
2022-11-22T04:03:13.952Z,5.05
2022-11-22T04:05:41.379Z,5.38
2022-11-22T04:08:08.917Z,6.22
2022-11-22T04:10:36.663Z,5.75
2022-11-22T04:13:04.444Z,5.78
2022-11-22T04:15:31.922Z,7.65
2022-11-22T04:17:59.624Z,4.82
2022-11-22T04:20:46.792Z,6.63
2022-11-22T04:23:21.243Z,4.93
2022-11-22T04:25:50.009Z,5.88
2022-11-22T04:28:18.607Z,5.47
2022-11-22T04:31:04.676Z,5.72
2022-11-22T04:33:32.465Z,7.13
2022-11-22T04:36:00.457Z,6.35
2022-11-22T04:38:28.296Z,7.45
2022-11-22T04:40:55.802Z,5.15
2022-11-22T04:43:43.640Z,5.47
2022-11-22T04:46:11.637Z,5.55
2022-11-22T04:48:39.713Z,7.18
2022-11-22T04:51:26.804Z,6.50
2022-11-22T04:53:54.615Z,5.57
2022-11-22T04:56:22.040Z,5.93
2022-11-22T04:58:51.843Z,4.75
2022-11-22T05:01:19.379Z,7.60
2022-11-22T05:03:46.864Z,8.75
2022-11-22T05:06:15.098Z,5.55
2022-11-22T05:08:42.889Z,7.57
2022-11-22T05:11:10.363Z,10.25
2022-11-22T05:13:39.356Z,5.57
2022-11-22T05:16:08.546Z,5.80
2022-11-22T05:18:36.304Z,8.55
2022-11-22T05:21:07.689Z,6.85
2022-11-22T05:23:53.902Z,5.30
2022-11-22T05:26:25.463Z,5.53
2022-11-22T05:28:53.287Z,9.18
2022-11-22T05:31:25.066Z,6.18
2022-11-22T05:33:53.994Z,5.70
2022-11-22T05:36:22.415Z,5.13
2022-11-22T05:38:50.104Z,8.57
2022-11-22T05:41:17.878Z,6.45
2022-11-22T05:43:45.597Z,6.57
2022-11-22T05:46:16.213Z,7.03
2022-11-22T05:48:47.447Z,5.85
2022-11-22T05:51:15.865Z,5.78
2022-11-22T05:53:44.849Z,7.10
2022-11-22T05:56:14.054Z,6.70
2022-11-22T05:58:41.798Z,8.82
2022-11-22T06:01:12.517Z,7.68
2022-11-22T06:03:40.403Z,6.32
2022-11-22T06:06:08.248Z,9.13
2022-11-22T06:08:36.925Z,8.63
2022-11-22T06:11:08.476Z,9.57
2022-11-22T06:13:40.065Z,9.10
2022-11-22T06:16:08.435Z,10.20
2022-11-22T06:18:36.187Z,10.02
2022-11-22T06:21:05.165Z,8.73
2022-11-22T06:23:32.673Z,11.18
2022-11-22T06:26:00.714Z,9.50
2022-11-22T06:28:29.679Z,8.18
2022-11-22T06:31:03.316Z,11.20
2022-11-22T06:33:31.034Z,7.35
2022-11-22T06:36:09.425Z,9.50
2022-11-22T06:38:37.302Z,7.82
2022-11-22T06:41:06.226Z,6.32
2022-11-22T06:43:34.459Z,6.25
2022-11-22T06:46:03.389Z,6.28
2022-11-22T06:48:31.388Z,6.85
2022-11-22T06:51:06.478Z,8.07
2022-11-22T06:53:50.470Z,7.93
2022-11-22T06:56:22.653Z,6.50
2022-11-22T06:58:52.125Z,5.40
2022-11-22T07:01:21.381Z,7.63
2022-11-22T07:03:49.630Z,8.02
2022-11-22T07:06:18.397Z,7.68
2022-11-22T07:08:46.730Z,6.32
2022-11-22T07:11:19.449Z,6.15
2022-11-22T07:13:47.953Z,6.80
2022-11-22T07:16:17.215Z,8.77
2022-11-22T07:18:44.800Z,7.93
2022-11-22T07:21:13.978Z,6.85
2022-11-22T07:23:42.754Z,7.03
2022-11-22T07:26:10.874Z,5.50
2022-11-22T07:28:38.421Z,5.88
2022-11-22T07:31:07.780Z,9.18
2022-11-22T07:33:35.996Z,4.60
2022-11-22T07:36:07.514Z,6.70
2022-11-22T07:38:35.854Z,6.68
2022-11-22T07:41:03.560Z,7.32
2022-11-22T07:43:31.494Z,10.15
2022-11-22T07:46:06.774Z,6.72
2022-11-22T07:48:34.797Z,11.27
2022-11-22T07:51:06.376Z,17.58
2022-11-22T07:53:35.105Z,20.25
2022-11-22T07:56:06.238Z,15.77
2022-11-22T07:58:34.913Z,13.93
2022-11-22T08:01:06.816Z,14.55
2022-11-22T08:03:34.638Z,16.02
2022-11-22T08:06:03.194Z,13.80
2022-11-22T08:08:31.227Z,11.35
2022-11-22T08:10:58.722Z,17.48
2022-11-22T08:13:26.469Z,14.10
2022-11-22T08:15:54.812Z,15.32
2022-11-22T08:18:23.817Z,14.15
2022-11-22T08:20:51.166Z,15.93
2022-11-22T08:23:19.108Z,25.50
2022-11-22T08:25:46.954Z,19.20
2022-11-22T08:28:14.496Z,11.43
2022-11-22T08:30:41.886Z,11.70
2022-11-22T08:33:09.333Z,10.13
2022-11-22T08:35:36.793Z,11.30
2022-11-22T08:38:04.486Z,15.90
2022-11-22T08:40:33.622Z,12.90
2022-11-22T08:43:04.133Z,11.93
2022-11-22T08:45:31.643Z,14.13
2022-11-22T08:47:59.293Z,12.80
2022-11-22T08:50:26.860Z,9.48
2022-11-22T08:52:55.054Z,11.50
2022-11-22T08:55:22.506Z,13.93
2022-11-22T08:57:50.237Z,12.68
2022-11-22T09:00:18.146Z,14.23
2022-11-22T09:02:46.028Z,12.18
2022-11-22T09:05:13.589Z,13.00
2022-11-22T09:10:29.126Z,11.30
2022-11-22T09:12:56.886Z,11.00
2022-11-22T09:15:25.506Z,12.93
2022-11-22T09:17:53.298Z,10.00
2022-11-22T09:20:20.803Z,15.02
2022-11-22T09:22:48.271Z,10.68
2022-11-22T09:25:15.976Z,13.05
2022-11-22T09:27:43.478Z,8.57
2022-11-22T09:30:12.637Z,10.10
2022-11-22T09:32:40.453Z,10.10
2022-11-22T09:35:07.974Z,9.32
2022-11-22T09:37:35.442Z,11.27
2022-11-22T09:40:03.733Z,11.00
2022-11-22T09:42:50.243Z,11.75
2022-11-22T09:45:38.136Z,14.85
2022-11-22T09:48:22.203Z,17.20
2022-11-22T09:50:54.486Z,21.77
2022-11-22T09:53:27.903Z,12.88
2022-11-22T09:55:59.767Z,13.60
2022-11-22T09:58:32.313Z,7.60
2022-11-22T10:01:09.995Z,12.32
2022-11-22T10:03:48.066Z,12.65
2022-11-22T10:06:38.993Z,9.40
2022-11-22T10:09:14.493Z,9.80
2022-11-22T10:11:42.283Z,11.90
2022-11-22T10:14:28.335Z,9.82
2022-11-22T10:17:02.236Z,10.18
2022-11-22T10:19:30.332Z,7.03
2022-11-22T10:21:58.054Z,9.73
2022-11-22T10:24:25.587Z,14.63
2022-11-22T10:26:54.947Z,11.20
2022-11-22T10:29:25.383Z,7.47
2022-11-22T10:32:10.803Z,8.35
2022-11-22T10:34:56.969Z,8.02
2022-11-22T10:37:57.043Z,11.43
2022-11-22T10:40:39.190Z,11.68
2022-11-22T10:43:15.977Z,7.35
2022-11-22T10:45:50.913Z,9.52
2022-11-22T10:48:24.606Z,9.82
2022-11-22T10:51:01.305Z,12.25
2022-11-22T10:53:37.836Z,6.82
2022-11-22T10:56:24.366Z,7.90
2022-11-22T10:58:55.075Z,12.70
2022-11-22T11:01:28.597Z,9.52
2022-11-22T11:03:59.453Z,10.60
2022-11-22T11:07:04.251Z,9.18
2022-11-22T11:12:30.765Z,13.48
2022-11-22T11:15:00.976Z,16.77
2022-11-22T11:17:30.633Z,19.15
2022-11-22T11:20:01.096Z,12.85
2022-11-22T11:23:06.472Z,11.57
2022-11-22T11:25:30.137Z,9.77
2022-11-22T11:27:59.793Z,12.90
2022-11-22T11:30:27.377Z,12.10
2022-11-22T11:32:56.046Z,9.05
2022-11-22T11:35:25.354Z,14.88
2022-11-22T11:37:52.954Z,17.83
2022-11-22T11:40:30.884Z,10.88
2022-11-22T11:43:16.933Z,11.55
2022-11-22T11:45:44.964Z,12.13
2022-11-22T11:48:37.934Z,6.88
2022-11-22T11:51:09.546Z,8.65
2022-11-22T11:53:37.264Z,12.07
2022-11-22T11:56:40.353Z,10.80
2022-11-22T11:59:20.219Z,10.07
2022-11-22T12:01:50.629Z,10.50
2022-11-22T12:04:23.215Z,13.32
2022-11-22T12:06:58.725Z,9.20
2022-11-22T12:09:30.684Z,9.75
2022-11-22T12:12:00.175Z,7.97
2022-11-22T12:14:42.972Z,10.68
2022-11-22T12:17:22.183Z,14.77
2022-11-22T12:20:09.917Z,9.32
2022-11-22T12:23:07.078Z,10.68
2022-11-22T12:25:36.988Z,8.93
2022-11-22T12:28:13.025Z,7.65
2022-11-22T12:30:42.375Z,9.45
2022-11-22T12:33:13.528Z,9.32
2022-11-22T12:35:44.041Z,7.47
2022-11-22T12:38:26.458Z,9.30
2022-11-22T12:40:55.564Z,7.05
2022-11-22T12:43:26.357Z,5.85
2022-11-22T12:45:58.987Z,8.27
2022-11-22T12:48:30.269Z,16.45
2022-11-22T12:51:01.624Z,7.78
2022-11-22T12:53:31.417Z,13.82
2022-11-22T12:56:11.136Z,7.20
2022-11-22T12:58:42.107Z,9.18
2022-11-22T13:01:18.555Z,11.60
2022-11-22T13:04:06.775Z,9.27
2022-11-22T13:06:38.307Z,10.30
2022-11-22T13:09:12.951Z,12.85
2022-11-22T13:11:44.015Z,3.67
2022-11-22T13:14:19.359Z,10.32
2022-11-22T13:16:48.653Z,11.63
2022-11-22T13:19:17.597Z,13.85
2022-11-22T13:21:54.027Z,9.20
2022-11-22T13:24:31.319Z,8.90
2022-11-22T13:27:08.205Z,3.83
2022-11-22T13:29:37.539Z,12.00
2022-11-22T13:32:14.007Z,5.30
2022-11-22T13:34:42.663Z,10.00
2022-11-22T13:37:15.727Z,11.15
2022-11-22T13:39:45.814Z,3.22
2022-11-22T13:42:16.198Z,6.85
2022-11-22T13:44:58.737Z,6.47
2022-11-22T13:47:35.567Z,8.05
2022-11-22T13:50:03.193Z,6.07
2022-11-22T13:52:50.904Z,7.13
2022-11-22T13:55:29.952Z,12.00
2022-11-22T13:57:57.763Z,4.95
2022-11-22T14:00:25.224Z,7.15
2022-11-22T14:02:54.214Z,4.70
2022-11-22T14:05:27.697Z,6.18
2022-11-22T14:07:56.866Z,9.70
2022-11-22T14:10:35.918Z,7.55
2022-11-22T14:13:06.174Z,6.88
2022-11-22T14:15:55.724Z,19.45
2022-11-22T14:18:33.034Z,16.75
2022-11-22T14:21:09.574Z,12.80
2022-11-22T14:23:57.263Z,13.43
2022-11-22T14:26:31.567Z,7.53
2022-11-22T14:31:34.555Z,11.02
2022-11-22T14:34:20.926Z,14.48
2022-11-22T14:37:07.298Z,7.50
2022-11-22T14:39:44.166Z,10.48
2022-11-22T14:42:30.492Z,19.52
2022-11-22T14:44:58.215Z,19.23
2022-11-22T14:47:25.821Z,11.23
2022-11-22T14:49:54.404Z,13.85
2022-11-22T14:52:23.757Z,19.30
2022-11-22T14:54:55.644Z,13.65
2022-11-22T14:57:24.557Z,8.38
2022-11-22T15:00:03.769Z,6.10
2022-11-22T15:02:50.165Z,8.25
2022-11-22T15:09:20.792Z,11.27
2022-11-22T15:09:23.394Z,11.23
2022-11-22T15:11:27.591Z,7.65
2022-11-22T15:14:06.677Z,13.30
2022-11-22T15:59:42.433Z,9.45
2022-11-22T16:02:19.245Z,7.45
2022-11-22T16:06:07.592Z,8.05
2022-11-22T16:07:48.761Z,10.82
2022-11-22T16:10:23.964Z,10.50
2022-11-22T16:12:52.673Z,6.47
2022-11-22T16:15:20.112Z,13.35
2022-11-22T16:17:56.455Z,14.63
2022-11-22T16:20:29.476Z,9.90
2022-11-22T16:23:12.297Z,7.32
2022-11-22T16:25:41.777Z,8.13
2022-11-22T16:28:23.933Z,8.30
2022-11-22T16:30:51.432Z,6.95
2022-11-22T16:33:19.167Z,8.52
2022-11-22T16:35:46.924Z,8.85
2022-11-22T16:38:14.514Z,8.38
2022-11-22T16:40:43.426Z,9.68
2022-11-22T16:43:18.536Z,9.68
2022-11-22T16:45:46.132Z,10.98
2022-11-22T16:48:31.195Z,5.88
2022-11-22T16:51:00.754Z,4.97
2022-11-22T16:53:29.654Z,13.82
2022-11-22T16:55:57.236Z,9.93
2022-11-22T16:58:25.170Z,3.58
2022-11-22T17:00:54.179Z,9.95
2022-11-22T17:03:24.382Z,11.48
2022-11-22T17:05:51.923Z,7.55
2022-11-22T17:08:21.439Z,9.38
2022-11-22T17:10:50.736Z,8.43
2022-11-22T17:13:19.990Z,7.47
2022-11-22T17:15:47.854Z,6.78
2022-11-22T17:18:15.948Z,5.75
2022-11-22T17:20:43.678Z,10.55
2022-11-22T17:23:14.551Z,10.82
2022-11-22T17:25:42.183Z,9.50
2022-11-22T17:28:09.791Z,12.57
2022-11-22T17:30:37.412Z,7.78
2022-11-22T17:33:05.222Z,10.80
2022-11-22T17:35:37.314Z,11.85
2022-11-22T17:38:13.952Z,7.95
2022-11-22T17:40:47.494Z,6.80
2022-11-22T17:43:23.986Z,5.53
2022-11-22T17:45:51.633Z,11.80
2022-11-22T17:48:19.606Z,10.30
2022-11-22T17:50:47.399Z,10.45
2022-11-22T17:53:14.986Z,7.43
2022-11-22T17:56:09.029Z,5.10
2022-11-22T17:58:31.516Z,7.78
2022-11-22T18:01:19.551Z,9.93
2022-11-22T18:03:48.089Z,7.88
2022-11-22T18:06:16.666Z,5.25
2022-11-22T18:08:47.289Z,6.50
2022-11-22T18:11:15.944Z,6.22
2022-11-22T18:13:43.382Z,7.38
2022-11-22T18:16:16.064Z,5.95
2022-11-22T18:18:59.543Z,6.30
2022-11-22T18:21:29.765Z,7.30
2022-11-22T18:23:58.880Z,8.45
2022-11-22T18:26:42.310Z,6.68
2022-11-22T18:29:41.290Z,11.53
2022-11-22T18:31:58.293Z,6.30
2022-11-22T18:34:25.867Z,5.13
2022-11-22T18:36:55.709Z,6.65
2022-11-22T18:39:26.893Z,9.05
2022-11-22T18:41:54.373Z,8.70
2022-11-22T18:44:21.875Z,14.65
2022-11-22T18:46:49.323Z,10.63
2022-11-22T18:49:16.813Z,15.45
2022-11-22T18:51:44.541Z,16.08
2022-11-22T18:54:12.264Z,19.13
2022-11-22T18:56:41.021Z,20.20
2022-11-22T18:59:09.808Z,21.05
2022-11-22T19:01:37.391Z,24.08
2022-11-22T19:04:05.596Z,24.75
2022-11-22T19:06:33.186Z,19.02
2022-11-22T19:09:01.994Z,15.00
2022-11-22T19:11:32.891Z,16.63
2022-11-22T19:14:00.465Z,17.45
2022-11-22T19:16:30.029Z,18.42
2022-11-22T19:18:57.696Z,14.70
2022-11-22T19:21:27.056Z,14.48
2022-11-22T19:23:55.334Z,13.60
2022-11-22T19:26:24.574Z,13.93
2022-11-22T19:28:56.107Z,14.45
2022-11-22T19:31:25.641Z,15.55
2022-11-22T19:33:54.517Z,23.60
2022-11-22T19:36:30.532Z,7.68
2022-11-22T19:38:59.955Z,9.27
2022-11-22T19:41:27.644Z,8.65
2022-11-22T19:43:56.662Z,5.10
2022-11-22T19:46:24.883Z,12.02
2022-11-22T19:48:53.212Z,9.48
2022-11-22T19:51:21.437Z,5.82
2022-11-22T19:53:49.284Z,14.60
2022-11-22T19:56:18.260Z,16.40
2022-11-22T19:58:50.442Z,20.92
2022-11-22T20:01:18.389Z,23.10
2022-11-22T20:03:46.462Z,24.27
2022-11-22T20:06:14.864Z,24.85
2022-11-22T20:08:42.851Z,29.15
2022-11-22T20:11:11.603Z,25.50
2022-11-22T20:13:40.455Z,22.65
2022-11-22T20:16:08.125Z,25.38
2022-11-22T20:18:35.647Z,23.15
2022-11-22T20:21:03.905Z,24.98
2022-11-22T20:23:31.847Z,21.13
2022-11-22T20:26:06.649Z,22.25
2022-11-22T20:28:34.192Z,26.60
2022-11-22T20:31:06.009Z,20.63
2022-11-22T20:33:37.494Z,20.75
2022-11-22T20:36:10.184Z,15.75
2022-11-22T20:38:38.587Z,13.15
2022-11-22T20:41:06.738Z,7.68
2022-11-22T20:43:35.207Z,10.65
2022-11-22T20:46:03.785Z,9.95
2022-11-22T20:48:32.033Z,7.85
2022-11-22T20:51:00.182Z,10.02
2022-11-22T20:53:28.176Z,18.25
2022-11-22T20:55:56.136Z,21.25
2022-11-22T20:58:27.788Z,26.02
2022-11-22T21:00:56.136Z,15.60
2022-11-22T21:03:24.305Z,17.98
2022-11-22T21:05:52.614Z,19.23
2022-11-22T21:08:20.644Z,16.98
2022-11-22T21:10:48.137Z,10.10
2022-11-22T21:13:15.951Z,21.60
2022-11-22T21:15:44.475Z,8.30
2022-11-22T21:18:27.861Z,8.90
2022-11-22T21:20:55.396Z,9.25
2022-11-22T21:23:22.984Z,10.98
2022-11-22T21:25:50.751Z,12.45
2022-11-22T21:28:18.380Z,9.95
2022-11-22T21:30:46.584Z,7.57
2022-11-22T21:33:14.187Z,9.73
2022-11-22T21:35:45.583Z,13.93
2022-11-22T21:38:16.744Z,14.25
2022-11-22T21:40:50.584Z,16.63
2022-11-22T21:43:18.284Z,13.70
2022-11-22T21:45:45.878Z,11.60
2022-11-22T21:48:13.625Z,19.33
2022-11-22T21:50:41.143Z,19.70
2022-11-22T21:53:09.206Z,16.80
2022-11-22T21:55:36.937Z,17.00
2022-11-22T21:58:04.706Z,11.23
2022-11-22T22:00:32.064Z,14.65
2022-11-22T22:02:59.535Z,18.42
2022-11-22T22:05:27.467Z,17.52
2022-11-22T22:07:55.071Z,19.75
2022-11-22T22:10:22.714Z,14.15
2022-11-22T22:12:53.604Z,16.83
2022-11-22T22:15:22.205Z,13.57
2022-11-22T22:17:49.717Z,15.35
2022-11-22T22:20:17.235Z,16.63
2022-11-22T22:22:44.764Z,15.90
2022-11-22T22:25:12.307Z,12.77
2022-11-22T22:27:40.137Z,15.63
2022-11-22T22:30:09.345Z,16.42
2022-11-22T22:32:37.282Z,14.48
2022-11-22T22:35:05.999Z,15.65
2022-11-22T22:37:35.525Z,13.82
2022-11-22T22:40:03.264Z,14.30
2022-11-22T22:42:30.753Z,15.43
2022-11-22T22:44:58.236Z,12.70
2022-11-22T22:47:25.807Z,10.70
2022-11-22T22:49:53.335Z,11.18
2022-11-22T22:52:21.084Z,10.57
2022-11-22T22:54:48.594Z,11.93
2022-11-22T22:57:16.017Z,13.48
2022-11-22T22:59:43.686Z,11.98
2022-11-22T23:02:11.237Z,11.52
2022-11-22T23:04:40.947Z,10.63
2022-11-22T23:07:08.890Z,14.25
2022-11-22T23:09:37.174Z,14.32
2022-11-22T23:12:13.593Z,13.80
2022-11-22T23:14:41.653Z,10.63
2022-11-22T23:17:10.401Z,19.88
2022-11-22T23:19:37.933Z,14.05
2022-11-22T23:22:05.856Z,17.95
2022-11-22T23:24:34.046Z,14.35
2022-11-22T23:27:02.057Z,11.70
2022-11-22T23:29:29.768Z,17.15
2022-11-22T23:31:57.574Z,11.68
2022-11-22T23:34:24.983Z,14.18
2022-11-22T23:36:52.553Z,11.70
2022-11-22T23:39:20.214Z,14.15
2022-11-22T23:41:48.104Z,10.88
2022-11-22T23:44:15.675Z,11.88
2022-11-22T23:46:43.476Z,15.27
2022-11-22T23:49:12.015Z,11.80
2022-11-22T23:51:39.845Z,10.18
2022-11-22T23:54:07.604Z,11.98
2022-11-22T23:56:36.706Z,10.45
2022-11-22T23:59:07.923Z,13.63
